Portada
METAR-TAF:

METAR-TAF

Aeroports :

Irkutsk, Rússia

latitud: 52-16N, longitud: 104-19E, altitud: 513 m

Observació

L'informe es va fer fa 36 minuts, a les 03:30 UTC
Vent 6 kt del Sud, variant entre Est/Sud-Est i Sud/Sud-Oest
Temperatura 11°C
Humitat 40%
Pressió 1022 hPa
Visibilitat 10 km o més
sense núvols per sota de 1500 mi sense presència de cumulonimbus.

METAR: UIII 150330Z 17003MPS 120V200 CAVOK 11/M02 Q1022 R12/60D NOSIG RMK QFE724/0965

Hora: 12:06 (04:06 UTC)

Pronòstic

L'informe es va fer fa 2 hores i 6 minuts, a les 02:00 UTC
Pronòstic vàlid del 15 a les 03 UTC al 16 a les 03 UTC
Vent 6 kt del Sud/Sud-Est
Visibilitat 10 km o més
sense núvols per sota de 1500 mi sense presència de cumulonimbus.

TAF: UIII 150200Z 1503/1603 16003MPS CAVOK

Observacions i pronòstics meteorològics de més de 4000 aeroports (METAR i TAF).

Les estacions disponibles són els punts grocs i vermells al mapa.

Posi el ratolí al punt desitjat per veure el nom de l'estació.

Feu clic per veure les observacions i els pronòstics meteorològics.

Per canviar el mapa: feu clic els botons verds amb una creu de color negre per apropar; al botó verd amb un guió per allunyar la imatge; o en les fletxes verdes per a mapes adjacents.


METAR-TAF: